Terminal Aerodrome Forecast
Issued by NWS Louisville, KY

Home | Current Version | Previous Version | Text Only | Print | Product List | Glossary On
Versions: 1 2 3 4 5 6 7 8 9 10 11 12 13 14 15 16 17 18 19 20 21 22 23 24 25 26
000
FTUS43 KLMK 131129
TAFLEX
TAF
KLEX 131129Z 1312/1412 14004KT P6SM OVC015
     FM131400 15006KT 6SM -DZ BR SCT015 OVC025
     FM131700 14006KT 6SM BR OVC015
     FM132100 10004KT 4SM -RA BR OVC007
     FM140200 10004KT 4SM -RA BR OVC003=

USA.gov is the U.S. government's official web portal to all federal, state and local government web resources and services.